createdAt,value
2019-04-07T00:01:26.598Z,6.00
2019-04-07T00:03:55.001Z,6.40
2019-04-07T00:06:24.249Z,6.27
2019-04-07T00:08:53.519Z,6.97
2019-04-07T00:11:21.951Z,5.90
2019-04-07T00:13:50.311Z,6.23
2019-04-07T00:16:18.735Z,6.90
2019-04-07T00:18:47.128Z,6.27
2019-04-07T00:21:15.544Z,6.90
2019-04-07T00:23:44.128Z,6.43
2019-04-07T00:26:12.810Z,6.33
2019-04-07T00:28:41.253Z,5.73
2019-04-07T00:31:09.640Z,6.60
2019-04-07T00:33:38.021Z,6.37
2019-04-07T00:36:06.403Z,6.10
2019-04-07T00:38:34.771Z,6.47
2019-04-07T00:41:03.180Z,6.47
2019-04-07T00:43:31.754Z,6.00
2019-04-07T00:46:00.227Z,6.17
2019-04-07T00:48:28.721Z,5.53
2019-04-07T00:50:57.079Z,6.13
2019-04-07T00:53:25.496Z,5.80
2019-04-07T00:55:54.343Z,6.23
2019-04-07T00:58:22.711Z,6.10
2019-04-07T01:00:51.108Z,6.37
2019-04-07T01:03:19.524Z,5.90
2019-04-07T01:05:47.980Z,6.27
2019-04-07T01:08:17.102Z,5.80
2019-04-07T01:10:45.862Z,5.70
2019-04-07T01:13:14.441Z,6.60
2019-04-07T01:15:43.473Z,6.40
2019-04-07T01:18:11.796Z,5.95
2019-04-07T01:20:40.210Z,5.35
2019-04-07T01:23:08.581Z,6.77
2019-04-07T01:25:36.944Z,6.50
2019-04-07T01:28:05.801Z,5.60
2019-04-07T01:30:34.845Z,6.43
2019-04-07T01:33:04.003Z,6.70
2019-04-07T01:35:32.980Z,6.80
2019-04-07T01:38:01.596Z,6.87
2019-04-07T01:40:29.957Z,6.00
2019-04-07T01:43:02.389Z,6.70
2019-04-07T01:45:41.248Z,6.37
2019-04-07T01:48:14.759Z,6.00
2019-04-07T01:50:50.387Z,6.10
2019-04-07T01:53:35.628Z,6.60
2019-04-07T01:56:20.971Z,5.53
2019-04-07T01:58:51.037Z,6.37
2019-04-07T02:01:31.226Z,6.17
2019-04-07T02:04:01.746Z,5.60
2019-04-07T02:06:34.890Z,5.90
2019-04-07T02:09:11.356Z,6.10
2019-04-07T02:11:58.358Z,5.83
2019-04-07T02:14:37.822Z,6.40
2019-04-07T02:17:10.813Z,5.80
2019-04-07T02:19:49.943Z,6.13
2019-04-07T02:22:25.593Z,5.70
2019-04-07T02:25:05.538Z,5.57
2019-04-07T02:27:38.394Z,5.00
2019-04-07T02:30:19.773Z,6.58
2019-04-07T02:32:53.195Z,6.47
2019-04-07T02:35:32.401Z,5.60
2019-04-07T02:38:14.939Z,6.10
2019-04-07T02:40:52.059Z,5.97
2019-04-07T02:43:27.849Z,6.50
2019-04-07T02:46:00.655Z,5.83
2019-04-07T02:48:42.983Z,5.78
2019-04-07T02:51:15.703Z,6.10
2019-04-07T02:54:02.537Z,6.00
2019-04-07T02:56:52.201Z,6.33
2019-04-07T02:59:29.216Z,6.60
2019-04-07T03:02:12.089Z,6.67
2019-04-07T03:04:46.051Z,5.55
2019-04-07T03:07:20.076Z,5.77
2019-04-07T03:10:06.334Z,5.77
2019-04-07T03:12:37.291Z,6.07
2019-04-07T03:15:13.745Z,5.40
2019-04-07T03:17:46.500Z,6.10
2019-04-07T03:20:25.845Z,6.10
2019-04-07T03:23:09.410Z,5.80
2019-04-07T03:25:52.616Z,6.17
2019-04-07T03:28:33.110Z,5.90
2019-04-07T03:31:21.113Z,5.97
2019-04-07T03:34:01.201Z,5.90
2019-04-07T03:37:02.710Z,5.75
2019-04-07T03:39:22.274Z,5.97
2019-04-07T03:41:53.714Z,5.27
2019-04-07T03:44:26.589Z,6.10
2019-04-07T03:47:10.222Z,6.15
2019-04-07T03:49:58.214Z,5.87
2019-04-07T03:52:28.732Z,6.60
2019-04-07T03:55:04.853Z,5.90
2019-04-07T03:57:35.293Z,5.30
2019-04-07T04:00:09.244Z,5.50
2019-04-07T04:02:48.452Z,5.87
2019-04-07T04:05:30.457Z,5.47
2019-04-07T04:08:09.459Z,5.77
2019-04-07T04:10:40.696Z,5.87
2019-04-07T04:13:11.114Z,5.80
2019-04-07T04:15:41.556Z,5.40
2019-04-07T04:18:09.923Z,6.00
2019-04-07T04:20:38.793Z,6.03
2019-04-07T04:23:07.876Z,5.53
2019-04-07T04:25:36.359Z,5.63
2019-04-07T04:28:05.043Z,6.30
2019-04-07T04:30:34.011Z,5.03
2019-04-07T04:33:02.439Z,5.67
2019-04-07T04:35:30.876Z,5.97
2019-04-07T04:37:59.802Z,5.20
2019-04-07T04:40:28.214Z,5.50
2019-04-07T04:42:56.914Z,5.83
2019-04-07T04:45:26.313Z,6.00
2019-04-07T04:47:54.795Z,5.90
2019-04-07T04:50:23.660Z,5.57
2019-04-07T04:52:52.303Z,6.27
2019-04-07T04:55:20.840Z,6.33
2019-04-07T04:57:49.866Z,5.43
2019-04-07T05:00:18.744Z,5.43
2019-04-07T05:02:47.605Z,5.10
2019-04-07T05:05:16.823Z,5.33
2019-04-07T05:07:55.432Z,5.70
2019-04-07T05:10:15.611Z,6.00
2019-04-07T05:12:44.971Z,5.47
2019-04-07T05:15:14.002Z,5.43
2019-04-07T05:17:43.599Z,5.37
2019-04-07T05:20:12.451Z,5.63
2019-04-07T05:22:41.210Z,5.50
2019-04-07T05:25:09.732Z,5.90
2019-04-07T05:27:38.303Z,6.07
2019-04-07T05:30:07.779Z,5.73
2019-04-07T05:32:36.814Z,5.73
2019-04-07T05:35:07.862Z,5.40
2019-04-07T05:37:36.550Z,5.92
2019-04-07T05:40:05.865Z,5.20
2019-04-07T05:42:34.359Z,5.53
2019-04-07T05:45:02.710Z,5.77
2019-04-07T05:47:31.493Z,5.53
2019-04-07T05:50:02.836Z,4.90
2019-04-07T05:52:30.591Z,5.70
2019-04-07T05:54:59.020Z,5.73
2019-04-07T05:57:30.809Z,5.20
2019-04-07T05:59:57.534Z,6.07
2019-04-07T06:02:27.301Z,5.20
2019-04-07T06:04:58.643Z,5.07
2019-04-07T06:07:31.243Z,6.10
2019-04-07T06:09:56.851Z,5.70
2019-04-07T06:12:25.248Z,5.53
2019-04-07T06:14:53.653Z,5.90
2019-04-07T06:17:24.185Z,5.43
2019-04-07T06:19:52.690Z,5.30
2019-04-07T06:22:21.990Z,5.60
2019-04-07T06:24:51.347Z,4.90
2019-04-07T06:27:19.751Z,5.90
2019-04-07T06:29:48.151Z,5.23
2019-04-07T06:32:16.676Z,5.33
2019-04-07T06:34:46.171Z,5.73
2019-04-07T06:37:15.175Z,5.00
2019-04-07T06:39:44.096Z,4.87
2019-04-07T06:42:13.078Z,5.57
2019-04-07T06:44:41.543Z,5.73
2019-04-07T06:47:23.805Z,5.50
2019-04-07T06:49:59.871Z,4.43
2019-04-07T06:52:30.223Z,5.73
2019-04-07T06:55:10.771Z,5.23
2019-04-07T06:57:57.131Z,5.57
2019-04-07T07:00:44.206Z,5.30
2019-04-07T07:03:16.776Z,4.93
2019-04-07T07:06:03.646Z,5.50
2019-04-07T07:08:43.247Z,5.10
2019-04-07T07:11:28.072Z,4.90
2019-04-07T07:14:13.756Z,5.57
2019-04-07T07:16:56.996Z,5.20
2019-04-07T07:19:28.570Z,5.53
2019-04-07T07:22:15.538Z,4.30
2019-04-07T07:24:42.768Z,6.10
2019-04-07T07:27:12.306Z,5.87
2019-04-07T07:29:40.977Z,5.30
2019-04-07T07:32:09.405Z,5.80
2019-04-07T07:34:39.883Z,5.83
2019-04-07T07:37:08.392Z,6.23
2019-04-07T07:39:36.832Z,6.63
2019-04-07T07:42:05.226Z,6.17
2019-04-07T07:44:36.106Z,5.37
2019-04-07T07:47:03.712Z,6.80
2019-04-07T07:49:35.997Z,6.60
2019-04-07T07:52:02.651Z,5.03
2019-04-07T07:54:31.616Z,5.67
2019-04-07T07:57:00.092Z,6.43
2019-04-07T07:59:33.136Z,7.60
2019-04-07T08:01:58.757Z,7.70
2019-04-07T08:04:27.661Z,8.23
2019-04-07T08:06:56.833Z,6.60
2019-04-07T08:09:26.318Z,7.30
2019-04-07T08:11:55.534Z,7.80
2019-04-07T08:14:23.908Z,7.63
2019-04-07T08:16:53.096Z,7.27
2019-04-07T08:19:25.361Z,6.50
2019-04-07T08:21:52.025Z,7.60
2019-04-07T08:24:20.789Z,6.83
2019-04-07T08:26:50.231Z,7.10
2019-04-07T08:29:18.629Z,6.90
2019-04-07T08:31:47.074Z,7.30
2019-04-07T08:34:15.460Z,6.77
2019-04-07T08:36:45.336Z,7.17
2019-04-07T08:39:22.984Z,7.05
2019-04-07T08:41:45.181Z,7.23
2019-04-07T08:44:14.997Z,7.28
2019-04-07T08:46:44.408Z,8.00
2019-04-07T08:49:12.913Z,7.03
2019-04-07T08:51:41.743Z,6.83
2019-04-07T08:54:10.085Z,7.10
2019-04-07T08:56:38.765Z,7.05
2019-04-07T08:59:10.013Z,7.10
2019-04-07T09:01:37.282Z,7.20
2019-04-07T09:04:05.690Z,7.63
2019-04-07T09:06:34.136Z,7.53
2019-04-07T09:09:03.970Z,6.80
2019-04-07T09:11:33.536Z,6.67
2019-04-07T09:14:04.240Z,6.97
2019-04-07T09:16:53.255Z,6.60
2019-04-07T09:19:22.475Z,6.40
2019-04-07T09:21:55.818Z,6.43
2019-04-07T09:24:44.069Z,6.00
2019-04-07T09:27:17.139Z,6.13
2019-04-07T09:29:52.312Z,6.67
2019-04-07T09:32:22.590Z,6.30
2019-04-07T09:35:01.999Z,7.37
2019-04-07T09:37:32.390Z,5.90
2019-04-07T09:40:17.251Z,7.03
2019-04-07T09:42:49.572Z,6.80
2019-04-07T09:45:19.626Z,7.10
2019-04-07T09:47:49.786Z,6.47
2019-04-07T09:50:27.937Z,6.63
2019-04-07T09:53:17.044Z,6.93
2019-04-07T09:55:59.213Z,6.60
2019-04-07T09:58:44.131Z,6.37
2019-04-07T10:01:19.903Z,7.40
2019-04-07T10:03:53.653Z,7.10
2019-04-07T10:06:39.134Z,6.37
2019-04-07T10:09:23.703Z,6.40
2019-04-07T10:12:10.216Z,6.93
2019-04-07T10:14:56.355Z,6.53
2019-04-07T10:17:29.182Z,6.40
2019-04-07T10:20:06.486Z,6.80
2019-04-07T10:22:55.257Z,6.93
2019-04-07T10:25:37.649Z,6.97
2019-04-07T10:28:12.539Z,6.50
2019-04-07T10:30:58.500Z,6.37
2019-04-07T10:33:29.361Z,6.93
2019-04-07T10:36:06.105Z,6.35
2019-04-07T10:38:36.392Z,6.50
2019-04-07T10:41:15.942Z,6.17
2019-04-07T10:43:55.784Z,6.60
2019-04-07T10:46:28.418Z,6.10
2019-04-07T10:49:14.724Z,6.40
2019-04-07T10:51:45.824Z,6.03
2019-04-07T10:54:22.210Z,6.53
2019-04-07T10:57:07.567Z,5.97
2019-04-07T10:59:49.624Z,6.55
2019-04-07T11:02:31.411Z,6.00
2019-04-07T11:05:01.912Z,6.80
2019-04-07T11:07:32.645Z,6.70
2019-04-07T11:10:03.586Z,6.57
2019-04-07T11:12:45.852Z,6.40
2019-04-07T11:15:22.324Z,6.50
2019-04-07T11:17:52.766Z,5.27
2019-04-07T11:20:38.505Z,6.17
2019-04-07T11:23:13.972Z,6.47
2019-04-07T11:25:44.975Z,6.00
2019-04-07T11:28:24.334Z,5.10
2019-04-07T11:30:54.378Z,6.00
2019-04-07T11:33:24.767Z,5.60
2019-04-07T11:35:54.975Z,5.70
2019-04-07T11:38:27.831Z,6.03
2019-04-07T11:41:17.006Z,6.80
2019-04-07T11:44:02.204Z,5.97
2019-04-07T11:46:41.121Z,6.07
2019-04-07T11:49:13.100Z,6.57
2019-04-07T11:52:00.019Z,5.45
2019-04-07T11:54:49.154Z,5.80
2019-04-07T11:57:19.266Z,5.87
2019-04-07T11:59:55.634Z,5.30
2019-04-07T12:02:43.535Z,5.63
2019-04-07T12:05:31.123Z,6.43
2019-04-07T12:08:10.524Z,5.50
2019-04-07T12:10:54.644Z,5.37
2019-04-07T12:13:26.933Z,6.43
2019-04-07T12:15:57.969Z,5.00
2019-04-07T12:18:28.149Z,5.53
2019-04-07T12:21:20.105Z,5.40
2019-04-07T12:23:58.448Z,6.50
2019-04-07T12:26:46.303Z,5.70
2019-04-07T12:29:19.328Z,5.83
2019-04-07T12:32:02.366Z,5.90
2019-04-07T12:34:33.263Z,5.90
2019-04-07T12:37:18.799Z,5.60
2019-04-07T12:39:50.899Z,5.30
2019-04-07T12:42:33.334Z,5.63
2019-04-07T12:45:15.573Z,5.30
2019-04-07T12:47:49.176Z,5.85
2019-04-07T12:50:28.894Z,5.37
2019-04-07T12:53:15.517Z,5.60
2019-04-07T12:55:53.387Z,5.30
2019-04-07T12:58:33.744Z,5.10
2019-04-07T13:01:16.265Z,4.80
2019-04-07T13:03:55.926Z,4.73
2019-04-07T13:06:32.016Z,5.37
2019-04-07T13:09:05.948Z,4.87
2019-04-07T13:11:39.504Z,5.20
2019-04-07T13:14:16.812Z,5.10
2019-04-07T13:16:58.964Z,5.03
2019-04-07T13:19:28.575Z,5.17
2019-04-07T13:22:01.634Z,4.97
2019-04-07T13:24:45.375Z,5.20
2019-04-07T13:27:35.166Z,4.70
2019-04-07T13:30:07.140Z,5.20
2019-04-07T13:32:43.595Z,4.63
2019-04-07T13:35:14.826Z,4.17
2019-04-07T13:37:51.156Z,5.22
2019-04-07T13:40:21.771Z,4.80
2019-04-07T13:43:04.431Z,5.03
2019-04-07T13:45:49.467Z,4.87
2019-04-07T13:48:20.842Z,5.30
2019-04-07T13:50:51.326Z,4.53
2019-04-07T13:53:37.877Z,5.17
2019-04-07T13:56:12.960Z,4.80
2019-04-07T13:58:55.484Z,5.33
2019-04-07T14:01:41.635Z,4.70
2019-04-07T14:04:14.648Z,4.77
2019-04-07T14:06:50.444Z,5.20
2019-04-07T14:09:27.184Z,5.30
2019-04-07T14:12:10.164Z,4.60
2019-04-07T14:14:36.158Z,4.77
2019-04-07T14:17:12.531Z,5.57
2019-04-07T14:19:45.261Z,4.83
2019-04-07T14:22:15.542Z,5.23
2019-04-07T14:24:46.107Z,4.60
2019-04-07T14:27:32.375Z,5.47
2019-04-07T14:30:02.834Z,5.60
2019-04-07T14:32:36.342Z,5.17
2019-04-07T14:35:08.363Z,4.90
2019-04-07T14:37:53.626Z,5.40
2019-04-07T14:40:32.424Z,5.80
2019-04-07T14:43:02.628Z,4.67
2019-04-07T14:45:32.688Z,5.40
2019-04-07T14:48:21.684Z,5.40
2019-04-07T14:50:56.046Z,4.90
2019-04-07T14:53:42.046Z,5.13
2019-04-07T14:56:12.512Z,4.90
2019-04-07T14:58:48.931Z,5.03
2019-04-07T15:01:20.289Z,4.93
2019-04-07T15:03:48.798Z,5.80
2019-04-07T15:06:17.379Z,5.50
2019-04-07T15:09:06.547Z,6.07
2019-04-07T15:11:38.686Z,9.97
2019-04-07T15:14:07.166Z,15.27
2019-04-07T15:16:36.745Z,19.00
2019-04-07T15:19:05.259Z,18.67
2019-04-07T15:21:33.678Z,17.60
2019-04-07T15:24:05.658Z,20.30
2019-04-07T15:26:32.572Z,21.50
2019-04-07T15:29:05.293Z,19.57
2019-04-07T15:31:33.078Z,16.73
2019-04-07T15:34:04.213Z,16.63
2019-04-07T15:36:31.645Z,16.67
2019-04-07T15:39:01.241Z,17.17
2019-04-07T15:41:29.613Z,15.50
2019-04-07T15:43:58.480Z,14.17
2019-04-07T15:46:27.018Z,14.40
2019-04-07T15:48:56.741Z,13.70
2019-04-07T15:51:26.244Z,13.07
2019-04-07T15:53:55.362Z,12.50
2019-04-07T15:56:24.098Z,12.80
2019-04-07T15:58:52.912Z,13.40
2019-04-07T16:01:21.754Z,13.57
2019-04-07T16:03:52.620Z,13.27
2019-04-07T16:06:20.642Z,11.50
2019-04-07T16:08:49.824Z,12.93
2019-04-07T16:11:18.978Z,13.80
2019-04-07T16:13:47.616Z,12.90
2019-04-07T16:16:16.014Z,12.97
2019-04-07T16:18:45.428Z,13.60
2019-04-07T16:21:14.341Z,13.27
2019-04-07T16:23:43.129Z,13.40
2019-04-07T16:26:11.877Z,12.80
2019-04-07T16:28:43.269Z,13.07
2019-04-07T16:31:10.583Z,11.70
2019-04-07T16:33:39.793Z,12.47
2019-04-07T16:36:09.186Z,13.07
2019-04-07T16:38:38.499Z,10.90
2019-04-07T16:41:07.854Z,12.10
2019-04-07T16:43:37.765Z,11.97
2019-04-07T16:46:06.711Z,11.60
2019-04-07T16:48:39.232Z,12.57
2019-04-07T16:51:05.961Z,11.30
2019-04-07T16:53:37.948Z,11.27
2019-04-07T16:56:05.307Z,10.80
2019-04-07T16:58:37.080Z,10.97
2019-04-07T17:01:04.640Z,10.20
2019-04-07T17:03:33.269Z,10.27
2019-04-07T17:06:02.901Z,10.23
2019-04-07T17:08:31.800Z,9.67
2019-04-07T17:11:04.464Z,9.33
2019-04-07T17:13:39.489Z,9.37
2019-04-07T17:16:02.709Z,9.90
2019-04-07T17:18:43.066Z,9.90
2019-04-07T17:21:15.669Z,10.00
2019-04-07T17:23:45.520Z,9.90
2019-04-07T17:26:14.298Z,9.73
2019-04-07T17:28:45.217Z,9.45
2019-04-07T17:31:14.294Z,9.90
2019-04-07T17:33:43.071Z,9.97
2019-04-07T17:36:15.361Z,9.23
2019-04-07T17:38:44.226Z,8.63
2019-04-07T17:41:15.569Z,8.75
2019-04-07T17:43:59.277Z,9.25
2019-04-07T17:46:44.482Z,8.67
2019-04-07T17:49:33.091Z,9.33
2019-04-07T17:52:19.749Z,8.68
2019-04-07T17:55:06.346Z,9.30
2019-04-07T17:57:42.851Z,8.70
2019-04-07T18:00:22.223Z,7.87
2019-04-07T18:02:54.902Z,8.67
2019-04-07T18:05:26.156Z,8.50
2019-04-07T18:08:01.810Z,8.60
2019-04-07T18:10:34.998Z,7.97
2019-04-07T18:13:22.867Z,8.23
2019-04-07T18:16:12.167Z,8.43
2019-04-07T18:18:59.436Z,7.77
2019-04-07T18:21:49.748Z,8.30
2019-04-07T18:24:29.537Z,8.67
2019-04-07T18:27:15.918Z,8.27
2019-04-07T18:30:00.753Z,8.33
2019-04-07T18:32:45.375Z,8.53
2019-04-07T18:35:19.482Z,8.13
2019-04-07T18:38:08.851Z,7.83
2019-04-07T18:40:37.288Z,7.97
2019-04-07T18:43:08.141Z,8.20
2019-04-07T18:45:47.778Z,8.10
2019-04-07T18:48:24.689Z,8.00
2019-04-07T18:50:53.406Z,7.80
2019-04-07T18:53:26.202Z,8.00
2019-04-07T18:55:58.054Z,8.97
2019-04-07T18:58:28.699Z,7.13
2019-04-07T19:01:14.480Z,7.70
2019-04-07T19:03:53.634Z,7.77
2019-04-07T19:06:26.520Z,7.60
2019-04-07T19:09:00.035Z,7.60
2019-04-07T19:11:34.213Z,7.93
2019-04-07T19:14:30.782Z,8.10
2019-04-07T19:16:49.989Z,7.40
2019-04-07T19:19:16.483Z,6.93
2019-04-07T19:21:47.554Z,7.60
2019-04-07T19:24:21.336Z,8.30
2019-04-07T19:27:17.294Z,7.87
2019-04-07T19:29:41.260Z,7.20
2019-04-07T19:32:27.765Z,8.05
2019-04-07T19:35:15.235Z,7.43
2019-04-07T19:37:47.353Z,8.03
2019-04-07T19:40:27.983Z,6.47
2019-04-07T19:43:03.886Z,7.80
2019-04-07T19:45:46.929Z,7.30
2019-04-07T19:48:17.607Z,6.43
2019-04-07T19:51:00.377Z,7.43
2019-04-07T19:53:32.632Z,7.40
2019-04-07T19:56:18.973Z,7.00
2019-04-07T19:58:48.986Z,7.25
2019-04-07T20:01:29.188Z,7.73
2019-04-07T20:03:59.830Z,6.97
2019-04-07T20:06:48.448Z,6.80
2019-04-07T20:09:24.314Z,7.00
2019-04-07T20:12:06.471Z,6.70
2019-04-07T20:14:47.393Z,7.60
2019-04-07T20:17:24.477Z,7.03
2019-04-07T20:20:11.222Z,7.13
2019-04-07T20:22:58.514Z,7.10
2019-04-07T20:25:28.822Z,6.97
2019-04-07T20:28:10.955Z,7.43
2019-04-07T20:30:51.459Z,6.57
2019-04-07T20:33:31.041Z,6.60
2019-04-07T20:35:59.100Z,6.50
2019-04-07T20:38:29.937Z,7.20
2019-04-07T20:41:12.060Z,6.80
2019-04-07T20:43:40.823Z,7.03
2019-04-07T20:46:10.997Z,6.85
2019-04-07T20:48:43.526Z,6.80
2019-04-07T20:51:17.455Z,6.90
2019-04-07T20:53:48.015Z,6.90
2019-04-07T20:56:23.549Z,6.60
2019-04-07T20:59:01.543Z,7.07
2019-04-07T21:01:31.120Z,6.83
2019-04-07T21:04:07.351Z,6.30
2019-04-07T21:06:58.946Z,6.53
2019-04-07T21:09:27.307Z,6.90
2019-04-07T21:12:00.798Z,6.10
2019-04-07T21:14:43.156Z,6.50
2019-04-07T21:17:18.937Z,6.23
2019-04-07T21:20:01.995Z,6.15
2019-04-07T21:22:38.980Z,6.33
2019-04-07T21:25:15.624Z,6.90
2019-04-07T21:27:52.646Z,5.90
2019-04-07T21:30:39.911Z,6.95
2019-04-07T21:33:15.945Z,6.60
2019-04-07T21:35:58.902Z,6.00
2019-04-07T21:38:31.417Z,6.70
2019-04-07T21:41:01.951Z,6.30
2019-04-07T21:43:31.981Z,6.60
2019-04-07T21:46:20.186Z,6.50
2019-04-07T21:48:49.070Z,6.77
2019-04-07T21:51:19.480Z,6.17
2019-04-07T21:53:49.502Z,6.20
2019-04-07T21:56:32.776Z,6.50
2019-04-07T21:59:03.250Z,6.53
2019-04-07T22:01:48.907Z,6.40
2019-04-07T22:04:25.308Z,7.10
2019-04-07T22:06:59.616Z,6.57
2019-04-07T22:09:30.294Z,6.53
2019-04-07T22:11:58.656Z,6.00
2019-04-07T22:14:27.048Z,6.13
2019-04-07T22:16:55.436Z,5.63
2019-04-07T22:19:24.379Z,6.20
2019-04-07T22:21:55.756Z,6.27
2019-04-07T22:24:22.892Z,6.23
2019-04-07T22:26:51.592Z,6.03
2019-04-07T22:29:20.376Z,5.70
2019-04-07T22:31:51.356Z,7.17
2019-04-07T22:34:20.779Z,5.60
2019-04-07T22:36:49.685Z,6.10
2019-04-07T22:39:18.443Z,6.43
2019-04-07T22:41:47.031Z,5.97
2019-04-07T22:44:15.600Z,6.10
2019-04-07T22:46:48.036Z,6.80
2019-04-07T22:49:14.169Z,6.30
2019-04-07T22:51:44.605Z,5.90
2019-04-07T22:54:12.681Z,6.03
2019-04-07T22:56:41.056Z,5.20
2019-04-07T22:59:10.465Z,5.97
2019-04-07T23:01:39.573Z,6.30
2019-04-07T23:04:07.948Z,6.17
2019-04-07T23:06:36.347Z,6.47
2019-04-07T23:09:06.583Z,6.43
2019-04-07T23:11:35.521Z,6.10
2019-04-07T23:14:04.422Z,6.00
2019-04-07T23:16:32.891Z,6.30
2019-04-07T23:19:01.273Z,6.40
2019-04-07T23:21:29.957Z,6.97
2019-04-07T23:23:58.329Z,5.83
2019-04-07T23:26:26.733Z,5.63
2019-04-07T23:28:55.114Z,5.93
2019-04-07T23:31:23.660Z,5.73
2019-04-07T23:33:52.276Z,5.80
2019-04-07T23:36:20.751Z,6.07
2019-04-07T23:38:49.634Z,6.30
2019-04-07T23:41:18.177Z,6.40
2019-04-07T23:43:46.564Z,5.70
2019-04-07T23:46:22.893Z,6.33
2019-04-07T23:48:45.594Z,6.00
2019-04-07T23:51:14.315Z,5.60
2019-04-07T23:54:07.493Z,6.23
2019-04-07T23:56:36.520Z,5.70
2019-04-07T23:59:06.241Z,6.10
